sensor_id;sensor_type;location;lat;lon;timestamp;P1;durP1;ratioP1;P2;durP2;ratioP2
71806;SDS011;59655;42.590;23.364;2022-08-11T00:01:16;17.52;;;10.38;;
71806;SDS011;59655;42.590;23.364;2022-08-11T00:03:45;16.30;;;9.68;;
71806;SDS011;59655;42.590;23.364;2022-08-11T00:06:12;17.48;;;9.88;;
71806;SDS011;59655;42.590;23.364;2022-08-11T00:08:48;15.32;;;10.30;;
71806;SDS011;59655;42.590;23.364;2022-08-11T00:11:14;16.30;;;9.38;;
71806;SDS011;59655;42.590;23.364;2022-08-11T00:13:43;14.02;;;10.35;;
71806;SDS011;59655;42.590;23.364;2022-08-11T00:16:11;15.32;;;10.23;;
71806;SDS011;59655;42.590;23.364;2022-08-11T00:18:41;15.68;;;10.20;;
71806;SDS011;59655;42.590;23.364;2022-08-11T00:21:11;14.93;;;10.70;;
71806;SDS011;59655;42.590;23.364;2022-08-11T00:23:39;16.20;;;10.23;;
71806;SDS011;59655;42.590;23.364;2022-08-11T00:26:11;16.10;;;9.88;;
71806;SDS011;59655;42.590;23.364;2022-08-11T00:28:38;15.63;;;10.57;;
71806;SDS011;59655;42.590;23.364;2022-08-11T00:31:06;17.20;;;9.82;;
71806;SDS011;59655;42.590;23.364;2022-08-11T00:36:04;15.55;;;9.90;;
71806;SDS011;59655;42.590;23.364;2022-08-11T00:38:33;15.98;;;9.93;;
71806;SDS011;59655;42.590;23.364;2022-08-11T00:46:34;15.00;;;9.75;;
71806;SDS011;59655;42.590;23.364;2022-08-11T00:49:15;16.70;;;10.13;;
71806;SDS011;59655;42.590;23.364;2022-08-11T01:01:08;15.88;;;9.95;;
71806;SDS011;59655;42.590;23.364;2022-08-11T01:09:55;15.13;;;9.95;;
71806;SDS011;59655;42.590;23.364;2022-08-11T01:12:44;14.43;;;9.93;;
71806;SDS011;59655;42.590;23.364;2022-08-11T01:16:04;15.25;;;9.77;;
71806;SDS011;59655;42.590;23.364;2022-08-11T01:18:29;14.23;;;9.98;;
71806;SDS011;59655;42.590;23.364;2022-08-11T01:42:17;19.15;;;10.98;;
71806;SDS011;59655;42.590;23.364;2022-08-11T01:51:00;15.30;;;10.27;;
71806;SDS011;59655;42.590;23.364;2022-08-11T01:59:24;16.70;;;10.25;;
71806;SDS011;59655;42.590;23.364;2022-08-11T02:10:33;15.18;;;9.95;;
71806;SDS011;59655;42.590;23.364;2022-08-11T02:16:16;15.82;;;10.27;;
71806;SDS011;59655;42.590;23.364;2022-08-11T02:19:06;16.52;;;10.90;;
71806;SDS011;59655;42.590;23.364;2022-08-11T02:22:03;16.98;;;10.20;;
71806;SDS011;59655;42.590;23.364;2022-08-11T02:27:42;16.48;;;9.82;;
71806;SDS011;59655;42.590;23.364;2022-08-11T02:30:13;17.05;;;11.05;;
71806;SDS011;59655;42.590;23.364;2022-08-11T02:32:50;15.45;;;10.55;;
71806;SDS011;59655;42.590;23.364;2022-08-11T02:35:50;16.05;;;10.32;;
71806;SDS011;59655;42.590;23.364;2022-08-11T02:38:37;15.20;;;9.98;;
71806;SDS011;59655;42.590;23.364;2022-08-11T02:52:40;14.48;;;9.90;;
71806;SDS011;59655;42.590;23.364;2022-08-11T02:55:28;13.55;;;9.10;;
71806;SDS011;59655;42.590;23.364;2022-08-11T03:01:47;16.13;;;9.98;;
71806;SDS011;59655;42.590;23.364;2022-08-11T03:04:09;15.20;;;10.13;;
71806;SDS011;59655;42.590;23.364;2022-08-11T03:06:49;16.52;;;10.80;;
71806;SDS011;59655;42.590;23.364;2022-08-11T03:09:26;15.85;;;10.07;;
71806;SDS011;59655;42.590;23.364;2022-08-11T03:15:06;15.63;;;9.95;;
71806;SDS011;59655;42.590;23.364;2022-08-11T03:20:47;16.20;;;9.65;;
71806;SDS011;59655;42.590;23.364;2022-08-11T03:23:24;14.30;;;9.55;;
71806;SDS011;59655;42.590;23.364;2022-08-11T03:32:00;14.05;;;9.13;;
71806;SDS011;59655;42.590;23.364;2022-08-11T03:34:30;15.40;;;9.48;;
71806;SDS011;59655;42.590;23.364;2022-08-11T03:37:04;16.73;;;9.50;;
71806;SDS011;59655;42.590;23.364;2022-08-11T04:11:16;18.17;;;9.98;;
71806;SDS011;59655;42.590;23.364;2022-08-11T04:24:58;16.58;;;9.77;;
71806;SDS011;59655;42.590;23.364;2022-08-11T04:36:10;16.13;;;9.68;;
71806;SDS011;59655;42.590;23.364;2022-08-11T05:01:15;18.08;;;9.27;;
71806;SDS011;59655;42.590;23.364;2022-08-11T05:09:55;21.67;;;10.13;;
71806;SDS011;59655;42.590;23.364;2022-08-11T05:12:28;15.15;;;10.82;;
71806;SDS011;59655;42.590;23.364;2022-08-11T05:15:00;18.33;;;9.93;;
71806;SDS011;59655;42.590;23.364;2022-08-11T05:17:59;17.98;;;10.02;;
71806;SDS011;59655;42.590;23.364;2022-08-11T05:20:53;19.98;;;9.85;;
71806;SDS011;59655;42.590;23.364;2022-08-11T05:23:41;15.30;;;10.38;;
71806;SDS011;59655;42.590;23.364;2022-08-11T05:26:41;19.40;;;10.73;;
71806;SDS011;59655;42.590;23.364;2022-08-11T05:30:12;16.50;;;9.93;;
71806;SDS011;59655;42.590;23.364;2022-08-11T05:33:29;19.33;;;10.70;;
71806;SDS011;59655;42.590;23.364;2022-08-11T05:36:30;18.77;;;10.25;;
71806;SDS011;59655;42.590;23.364;2022-08-11T05:39:10;16.77;;;10.05;;
71806;SDS011;59655;42.590;23.364;2022-08-11T05:41:58;15.98;;;9.32;;
71806;SDS011;59655;42.590;23.364;2022-08-11T05:44:44;17.70;;;9.30;;
71806;SDS011;59655;42.590;23.364;2022-08-11T05:47:29;13.52;;;9.00;;
71806;SDS011;59655;42.590;23.364;2022-08-11T05:50:14;16.15;;;9.45;;
71806;SDS011;59655;42.590;23.364;2022-08-11T05:53:01;15.63;;;9.75;;
71806;SDS011;59655;42.590;23.364;2022-08-11T05:55:46;13.30;;;8.70;;
71806;SDS011;59655;42.590;23.364;2022-08-11T06:01:04;17.95;;;9.75;;
71806;SDS011;59655;42.590;23.364;2022-08-11T06:03:31;19.33;;;9.20;;
71806;SDS011;59655;42.590;23.364;2022-08-11T06:06:19;18.17;;;10.40;;
71806;SDS011;59655;42.590;23.364;2022-08-11T06:08:46;16.48;;;8.55;;
71806;SDS011;59655;42.590;23.364;2022-08-11T06:11:12;14.98;;;9.27;;
71806;SDS011;59655;42.590;23.364;2022-08-11T06:13:42;13.77;;;9.32;;
71806;SDS011;59655;42.590;23.364;2022-08-11T06:16:09;18.23;;;10.43;;
71806;SDS011;59655;42.590;23.364;2022-08-11T06:18:37;14.02;;;9.13;;
71806;SDS011;59655;42.590;23.364;2022-08-11T06:21:07;22.52;;;11.57;;
71806;SDS011;59655;42.590;23.364;2022-08-11T06:23:34;15.00;;;10.25;;
71806;SDS011;59655;42.590;23.364;2022-08-11T06:25:59;18.38;;;10.27;;
71806;SDS011;59655;42.590;23.364;2022-08-11T06:28:32;17.77;;;9.23;;
71806;SDS011;59655;42.590;23.364;2022-08-11T06:31:02;16.17;;;9.93;;
71806;SDS011;59655;42.590;23.364;2022-08-11T06:33:52;14.50;;;8.68;;
71806;SDS011;59655;42.590;23.364;2022-08-11T06:39:21;20.02;;;10.13;;
71806;SDS011;59655;42.590;23.364;2022-08-11T06:41:56;17.77;;;10.57;;
71806;SDS011;59655;42.590;23.364;2022-08-11T06:44:33;21.45;;;11.15;;
71806;SDS011;59655;42.590;23.364;2022-08-11T06:47:09;14.30;;;10.13;;
71806;SDS011;59655;42.590;23.364;2022-08-11T06:49:36;14.88;;;11.25;;
71806;SDS011;59655;42.590;23.364;2022-08-11T06:52:30;17.58;;;10.25;;
71806;SDS011;59655;42.590;23.364;2022-08-11T06:54:59;14.65;;;9.60;;
71806;SDS011;59655;42.590;23.364;2022-08-11T06:57:31;19.48;;;9.70;;
71806;SDS011;59655;42.590;23.364;2022-08-11T07:00:17;15.80;;;10.00;;
71806;SDS011;59655;42.590;23.364;2022-08-11T07:05:49;17.17;;;9.77;;
71806;SDS011;59655;42.590;23.364;2022-08-11T07:15:01;16.35;;;8.77;;
71806;SDS011;59655;42.590;23.364;2022-08-11T07:24:08;13.52;;;8.93;;
71806;SDS011;59655;42.590;23.364;2022-08-11T07:26:57;12.18;;;9.15;;
71806;SDS011;59655;42.590;23.364;2022-08-11T07:32:14;13.30;;;7.35;;
71806;SDS011;59655;42.590;23.364;2022-08-11T07:34:48;14.85;;;7.90;;
71806;SDS011;59655;42.590;23.364;2022-08-11T07:37:19;11.55;;;8.05;;
71806;SDS011;59655;42.590;23.364;2022-08-11T07:39:48;12.65;;;8.40;;
71806;SDS011;59655;42.590;23.364;2022-08-11T07:42:20;15.82;;;8.30;;
71806;SDS011;59655;42.590;23.364;2022-08-11T07:44:47;12.70;;;8.20;;
71806;SDS011;59655;42.590;23.364;2022-08-11T07:47:32;14.63;;;9.00;;
71806;SDS011;59655;42.590;23.364;2022-08-11T07:50:19;13.55;;;9.63;;
71806;SDS011;59655;42.590;23.364;2022-08-11T07:53:03;11.65;;;8.25;;
71806;SDS011;59655;42.590;23.364;2022-08-11T07:55:29;13.98;;;8.15;;
71806;SDS011;59655;42.590;23.364;2022-08-11T07:57:56;12.75;;;8.68;;
71806;SDS011;59655;42.590;23.364;2022-08-11T08:00:42;12.93;;;9.40;;
71806;SDS011;59655;42.590;23.364;2022-08-11T08:03:47;19.35;;;8.55;;
71806;SDS011;59655;42.590;23.364;2022-08-11T08:06:32;17.98;;;10.15;;
71806;SDS011;59655;42.590;23.364;2022-08-11T08:09:17;15.95;;;8.50;;
71806;SDS011;59655;42.590;23.364;2022-08-11T08:14:48;12.00;;;7.38;;
71806;SDS011;59655;42.590;23.364;2022-08-11T08:17:34;14.05;;;8.18;;
71806;SDS011;59655;42.590;23.364;2022-08-11T08:20:20;12.27;;;8.13;;
71806;SDS011;59655;42.590;23.364;2022-08-11T08:22:51;26.10;;;9.70;;
71806;SDS011;59655;42.590;23.364;2022-08-11T08:25:31;14.13;;;8.75;;
71806;SDS011;59655;42.590;23.364;2022-08-11T08:27:58;11.93;;;8.25;;
71806;SDS011;59655;42.590;23.364;2022-08-11T08:30:26;13.23;;;8.88;;
71806;SDS011;59655;42.590;23.364;2022-08-11T08:33:21;13.23;;;7.95;;
71806;SDS011;59655;42.590;23.364;2022-08-11T08:35:50;13.10;;;8.07;;
71806;SDS011;59655;42.590;23.364;2022-08-11T08:38:36;12.68;;;7.95;;
71806;SDS011;59655;42.590;23.364;2022-08-11T08:41:26;15.02;;;8.57;;
71806;SDS011;59655;42.590;23.364;2022-08-11T08:43:54;17.17;;;8.52;;
71806;SDS011;59655;42.590;23.364;2022-08-11T08:46:24;14.18;;;8.82;;
71806;SDS011;59655;42.590;23.364;2022-08-11T08:48:54;17.48;;;8.70;;
71806;SDS011;59655;42.590;23.364;2022-08-11T08:51:24;16.88;;;9.40;;
71806;SDS011;59655;42.590;23.364;2022-08-11T08:54:18;14.55;;;9.45;;
71806;SDS011;59655;42.590;23.364;2022-08-11T08:56:50;12.98;;;8.80;;
71806;SDS011;59655;42.590;23.364;2022-08-11T08:59:19;15.40;;;9.05;;
71806;SDS011;59655;42.590;23.364;2022-08-11T09:01:50;14.55;;;9.88;;
71806;SDS011;59655;42.590;23.364;2022-08-11T09:04:21;18.42;;;9.50;;
71806;SDS011;59655;42.590;23.364;2022-08-11T09:06:48;15.65;;;9.35;;
71806;SDS011;59655;42.590;23.364;2022-08-11T09:09:14;18.88;;;9.15;;
71806;SDS011;59655;42.590;23.364;2022-08-11T09:11:41;14.27;;;8.70;;
71806;SDS011;59655;42.590;23.364;2022-08-11T09:14:23;34.28;;;10.93;;
71806;SDS011;59655;42.590;23.364;2022-08-11T09:17:17;13.35;;;8.70;;
71806;SDS011;59655;42.590;23.364;2022-08-11T09:19:44;12.35;;;8.68;;
71806;SDS011;59655;42.590;23.364;2022-08-11T09:22:11;15.10;;;8.27;;
71806;SDS011;59655;42.590;23.364;2022-08-11T09:24:55;9.40;;;7.10;;
71806;SDS011;59655;42.590;23.364;2022-08-11T09:27:40;14.93;;;7.53;;
71806;SDS011;59655;42.590;23.364;2022-08-11T09:30:06;14.10;;;7.88;;
71806;SDS011;59655;42.590;23.364;2022-08-11T09:32:33;16.02;;;8.27;;
71806;SDS011;59655;42.590;23.364;2022-08-11T09:35:00;16.40;;;9.00;;
71806;SDS011;59655;42.590;23.364;2022-08-11T09:40:12;23.42;;;9.95;;
71806;SDS011;59655;42.590;23.364;2022-08-11T09:42:58;18.65;;;9.38;;
71806;SDS011;59655;42.590;23.364;2022-08-11T09:45:48;18.75;;;10.52;;
71806;SDS011;59655;42.590;23.364;2022-08-11T09:48:22;16.67;;;9.50;;
71806;SDS011;59655;42.590;23.364;2022-08-11T09:50:50;14.43;;;9.90;;
71806;SDS011;59655;42.590;23.364;2022-08-11T09:53:19;14.82;;;8.65;;
71806;SDS011;59655;42.590;23.364;2022-08-11T09:55:45;13.55;;;8.63;;
71806;SDS011;59655;42.590;23.364;2022-08-11T09:58:13;19.17;;;9.30;;
71806;SDS011;59655;42.590;23.364;2022-08-11T10:00:52;13.70;;;8.73;;
71806;SDS011;59655;42.590;23.364;2022-08-11T10:03:23;15.85;;;9.70;;
71806;SDS011;59655;42.590;23.364;2022-08-11T10:05:55;16.27;;;8.52;;
71806;SDS011;59655;42.590;23.364;2022-08-11T10:08:43;13.63;;;8.23;;
71806;SDS011;59655;42.590;23.364;2022-08-11T10:13:42;15.35;;;8.15;;
71806;SDS011;59655;42.590;23.364;2022-08-11T10:16:28;21.83;;;9.25;;
71806;SDS011;59655;42.590;23.364;2022-08-11T10:18:58;15.25;;;9.07;;
71806;SDS011;59655;42.590;23.364;2022-08-11T10:24:01;15.00;;;9.20;;
71806;SDS011;59655;42.590;23.364;2022-08-11T10:26:47;14.15;;;8.55;;
71806;SDS011;59655;42.590;23.364;2022-08-11T10:29:18;15.13;;;9.98;;
71806;SDS011;59655;42.590;23.364;2022-08-11T10:32:07;17.67;;;8.57;;
71806;SDS011;59655;42.590;23.364;2022-08-11T10:34:52;15.20;;;8.57;;
71806;SDS011;59655;42.590;23.364;2022-08-11T10:37:19;17.63;;;9.20;;
71806;SDS011;59655;42.590;23.364;2022-08-11T10:39:47;13.98;;;9.25;;
71806;SDS011;59655;42.590;23.364;2022-08-11T10:42:13;13.68;;;8.80;;
71806;SDS011;59655;42.590;23.364;2022-08-11T10:44:58;12.68;;;8.48;;
71806;SDS011;59655;42.590;23.364;2022-08-11T10:47:26;13.48;;;8.20;;
71806;SDS011;59655;42.590;23.364;2022-08-11T10:50:09;18.15;;;9.68;;
71806;SDS011;59655;42.590;23.364;2022-08-11T10:52:55;13.80;;;8.52;;
71806;SDS011;59655;42.590;23.364;2022-08-11T10:55:42;16.13;;;8.65;;
71806;SDS011;59655;42.590;23.364;2022-08-11T10:58:27;17.75;;;9.48;;
71806;SDS011;59655;42.590;23.364;2022-08-11T11:01:12;16.10;;;9.70;;
71806;SDS011;59655;42.590;23.364;2022-08-11T11:03:38;15.57;;;9.52;;
71806;SDS011;59655;42.590;23.364;2022-08-11T11:08:32;15.57;;;9.30;;
71806;SDS011;59655;42.590;23.364;2022-08-11T11:11:18;20.17;;;10.25;;
71806;SDS011;59655;42.590;23.364;2022-08-11T11:16:32;18.95;;;8.80;;
71806;SDS011;59655;42.590;23.364;2022-08-11T11:19:18;17.30;;;9.75;;
71806;SDS011;59655;42.590;23.364;2022-08-11T11:21:49;16.52;;;10.57;;
71806;SDS011;59655;42.590;23.364;2022-08-11T11:24:32;20.77;;;9.65;;
71806;SDS011;59655;42.590;23.364;2022-08-11T11:30:09;14.95;;;8.70;;
71806;SDS011;59655;42.590;23.364;2022-08-11T11:38:13;13.10;;;8.10;;
71806;SDS011;59655;42.590;23.364;2022-08-11T11:40:40;19.08;;;8.38;;
71806;SDS011;59655;42.590;23.364;2022-08-11T11:43:07;16.42;;;8.43;;
71806;SDS011;59655;42.590;23.364;2022-08-11T11:45:34;15.57;;;8.25;;
71806;SDS011;59655;42.590;23.364;2022-08-11T11:47:59;15.38;;;9.18;;
71806;SDS011;59655;42.590;23.364;2022-08-11T11:50:30;15.57;;;8.27;;
71806;SDS011;59655;42.590;23.364;2022-08-11T11:52:59;12.40;;;8.30;;
71806;SDS011;59655;42.590;23.364;2022-08-11T11:55:27;20.02;;;8.48;;
71806;SDS011;59655;42.590;23.364;2022-08-11T11:57:54;21.85;;;9.25;;
71806;SDS011;59655;42.590;23.364;2022-08-11T12:00:40;13.18;;;8.90;;
71806;SDS011;59655;42.590;23.364;2022-08-11T12:03:26;13.57;;;8.63;;
71806;SDS011;59655;42.590;23.364;2022-08-11T12:05:52;13.77;;;9.45;;
71806;SDS011;59655;42.590;23.364;2022-08-11T12:08:18;12.23;;;8.25;;
71806;SDS011;59655;42.590;23.364;2022-08-11T12:10:48;24.70;;;8.68;;
71806;SDS011;59655;42.590;23.364;2022-08-11T12:13:41;22.30;;;8.40;;
71806;SDS011;59655;42.590;23.364;2022-08-11T12:16:09;20.85;;;9.00;;
71806;SDS011;59655;42.590;23.364;2022-08-11T12:18:36;16.67;;;9.00;;
71806;SDS011;59655;42.590;23.364;2022-08-11T12:21:03;24.73;;;9.57;;
71806;SDS011;59655;42.590;23.364;2022-08-11T12:23:30;14.95;;;9.10;;
71806;SDS011;59655;42.590;23.364;2022-08-11T12:26:16;16.77;;;8.70;;
71806;SDS011;59655;42.590;23.364;2022-08-11T12:29:02;17.38;;;9.05;;
71806;SDS011;59655;42.590;23.364;2022-08-11T12:31:29;21.98;;;10.18;;
71806;SDS011;59655;42.590;23.364;2022-08-11T12:34:03;19.45;;;9.77;;
71806;SDS011;59655;42.590;23.364;2022-08-11T12:36:31;16.77;;;9.27;;
71806;SDS011;59655;42.590;23.364;2022-08-11T12:39:00;15.05;;;8.90;;
71806;SDS011;59655;42.590;23.364;2022-08-11T12:41:28;16.20;;;9.68;;
71806;SDS011;59655;42.590;23.364;2022-08-11T12:44:13;18.65;;;9.40;;
71806;SDS011;59655;42.590;23.364;2022-08-11T12:46:58;19.23;;;8.85;;
71806;SDS011;59655;42.590;23.364;2022-08-11T12:49:27;17.88;;;9.52;;
71806;SDS011;59655;42.590;23.364;2022-08-11T12:52:20;18.02;;;8.43;;
71806;SDS011;59655;42.590;23.364;2022-08-11T12:54:54;17.05;;;8.90;;
71806;SDS011;59655;42.590;23.364;2022-08-11T12:57:29;20.08;;;9.10;;
71806;SDS011;59655;42.590;23.364;2022-08-11T13:00:16;18.20;;;8.93;;
71806;SDS011;59655;42.590;23.364;2022-08-11T13:03:01;18.95;;;8.63;;
71806;SDS011;59655;42.590;23.364;2022-08-11T13:05:48;18.73;;;8.70;;
71806;SDS011;59655;42.590;23.364;2022-08-11T13:08:18;19.15;;;9.68;;
71806;SDS011;59655;42.590;23.364;2022-08-11T13:10:46;18.38;;;9.20;;
71806;SDS011;59655;42.590;23.364;2022-08-11T13:13:33;16.42;;;9.63;;
71806;SDS011;59655;42.590;23.364;2022-08-11T13:15:59;14.15;;;8.60;;
71806;SDS011;59655;42.590;23.364;2022-08-11T13:18:25;14.55;;;8.38;;
71806;SDS011;59655;42.590;23.364;2022-08-11T13:20:54;20.00;;;8.30;;
71806;SDS011;59655;42.590;23.364;2022-08-11T13:23:22;17.77;;;8.27;;
71806;SDS011;59655;42.590;23.364;2022-08-11T13:25:49;14.70;;;8.77;;
71806;SDS011;59655;42.590;23.364;2022-08-11T13:28:17;15.15;;;7.97;;
71806;SDS011;59655;42.590;23.364;2022-08-11T13:30:45;16.05;;;7.75;;
71806;SDS011;59655;42.590;23.364;2022-08-11T13:33:29;16.65;;;8.45;;
71806;SDS011;59655;42.590;23.364;2022-08-11T13:35:56;15.13;;;8.15;;
71806;SDS011;59655;42.590;23.364;2022-08-11T13:38:22;20.13;;;9.10;;
71806;SDS011;59655;42.590;23.364;2022-08-11T13:40:50;16.95;;;10.13;;
71806;SDS011;59655;42.590;23.364;2022-08-11T13:43:19;19.52;;;8.63;;
71806;SDS011;59655;42.590;23.364;2022-08-11T13:45:46;17.15;;;8.55;;
71806;SDS011;59655;42.590;23.364;2022-08-11T13:48:13;16.45;;;7.72;;
71806;SDS011;59655;42.590;23.364;2022-08-11T13:50:40;13.77;;;7.82;;
71806;SDS011;59655;42.590;23.364;2022-08-11T13:53:25;14.02;;;8.30;;
71806;SDS011;59655;42.590;23.364;2022-08-11T13:55:51;13.88;;;7.50;;
71806;SDS011;59655;42.590;23.364;2022-08-11T13:58:18;20.42;;;8.48;;
71806;SDS011;59655;42.590;23.364;2022-08-11T14:00:46;13.10;;;7.68;;
71806;SDS011;59655;42.590;23.364;2022-08-11T14:03:14;15.27;;;7.95;;
71806;SDS011;59655;42.590;23.364;2022-08-11T14:05:47;22.98;;;8.32;;
71806;SDS011;59655;42.590;23.364;2022-08-11T14:08:16;12.75;;;7.88;;
71806;SDS011;59655;42.590;23.364;2022-08-11T14:10:49;12.65;;;8.40;;
71806;SDS011;59655;42.590;23.364;2022-08-11T14:13:38;14.48;;;8.93;;
71806;SDS011;59655;42.590;23.364;2022-08-11T14:16:07;13.05;;;8.13;;
71806;SDS011;59655;42.590;23.364;2022-08-11T14:18:38;14.73;;;8.00;;
71806;SDS011;59655;42.590;23.364;2022-08-11T14:21:06;15.60;;;9.00;;
71806;SDS011;59655;42.590;23.364;2022-08-11T14:23:55;17.90;;;9.13;;
71806;SDS011;59655;42.590;23.364;2022-08-11T14:26:23;13.48;;;7.35;;
71806;SDS011;59655;42.590;23.364;2022-08-11T14:31:22;12.60;;;7.85;;
71806;SDS011;59655;42.590;23.364;2022-08-11T14:33:49;13.05;;;8.45;;
71806;SDS011;59655;42.590;23.364;2022-08-11T14:36:18;13.43;;;7.78;;
71806;SDS011;59655;42.590;23.364;2022-08-11T14:38:47;10.80;;;7.20;;
71806;SDS011;59655;42.590;23.364;2022-08-11T14:41:13;11.00;;;7.40;;
71806;SDS011;59655;42.590;23.364;2022-08-11T14:43:58;13.60;;;8.07;;
71806;SDS011;59655;42.590;23.364;2022-08-11T14:46:42;11.30;;;7.22;;
71806;SDS011;59655;42.590;23.364;2022-08-11T14:49:27;16.13;;;8.02;;
71806;SDS011;59655;42.590;23.364;2022-08-11T14:51:53;14.93;;;7.88;;
71806;SDS011;59655;42.590;23.364;2022-08-11T14:54:24;15.57;;;7.45;;
71806;SDS011;59655;42.590;23.364;2022-08-11T14:57:13;11.93;;;7.15;;
71806;SDS011;59655;42.590;23.364;2022-08-11T14:59:41;12.35;;;7.65;;
71806;SDS011;59655;42.590;23.364;2022-08-11T15:02:08;15.82;;;7.57;;
71806;SDS011;59655;42.590;23.364;2022-08-11T15:04:53;20.85;;;7.88;;
71806;SDS011;59655;42.590;23.364;2022-08-11T15:07:20;13.20;;;8.07;;
71806;SDS011;59655;42.590;23.364;2022-08-11T15:09:53;13.38;;;7.93;;
71806;SDS011;59655;42.590;23.364;2022-08-11T15:12:19;11.25;;;7.95;;
71806;SDS011;59655;42.590;23.364;2022-08-11T15:14:45;11.15;;;7.85;;
71806;SDS011;59655;42.590;23.364;2022-08-11T15:17:30;14.07;;;8.30;;
71806;SDS011;59655;42.590;23.364;2022-08-11T15:20:00;13.98;;;8.10;;
71806;SDS011;59655;42.590;23.364;2022-08-11T15:22:47;12.38;;;7.50;;
71806;SDS011;59655;42.590;23.364;2022-08-11T15:25:32;10.25;;;6.97;;
71806;SDS011;59655;42.590;23.364;2022-08-11T15:27:59;14.38;;;7.22;;
71806;SDS011;59655;42.590;23.364;2022-08-11T15:30:45;15.23;;;7.82;;
71806;SDS011;59655;42.590;23.364;2022-08-11T15:33:32;13.30;;;7.78;;
71806;SDS011;59655;42.590;23.364;2022-08-11T15:36:19;16.05;;;9.65;;
71806;SDS011;59655;42.590;23.364;2022-08-11T15:39:23;14.80;;;8.10;;
71806;SDS011;59655;42.590;23.364;2022-08-11T15:44:40;18.92;;;8.32;;
71806;SDS011;59655;42.590;23.364;2022-08-11T15:47:34;17.75;;;8.70;;
71806;SDS011;59655;42.590;23.364;2022-08-11T15:50:03;14.27;;;8.20;;
71806;SDS011;59655;42.590;23.364;2022-08-11T15:52:32;16.05;;;8.18;;
71806;SDS011;59655;42.590;23.364;2022-08-11T15:55:02;18.92;;;9.38;;
71806;SDS011;59655;42.590;23.364;2022-08-11T15:57:31;24.08;;;10.50;;
71806;SDS011;59655;42.590;23.364;2022-08-11T16:00:16;14.57;;;8.70;;
71806;SDS011;59655;42.590;23.364;2022-08-11T16:03:01;12.88;;;8.65;;
71806;SDS011;59655;42.590;23.364;2022-08-11T16:05:47;13.38;;;8.23;;
71806;SDS011;59655;42.590;23.364;2022-08-11T16:08:15;13.30;;;7.95;;
71806;SDS011;59655;42.590;23.364;2022-08-11T16:10:43;12.65;;;8.10;;
71806;SDS011;59655;42.590;23.364;2022-08-11T16:13:09;12.75;;;8.55;;
71806;SDS011;59655;42.590;23.364;2022-08-11T16:15:38;18.40;;;9.32;;
71806;SDS011;59655;42.590;23.364;2022-08-11T16:18:25;17.58;;;8.65;;
71806;SDS011;59655;42.590;23.364;2022-08-11T16:21:06;18.90;;;8.30;;
71806;SDS011;59655;42.590;23.364;2022-08-11T16:23:34;12.20;;;7.78;;
71806;SDS011;59655;42.590;23.364;2022-08-11T16:26:00;15.50;;;8.10;;
71806;SDS011;59655;42.590;23.364;2022-08-11T16:28:27;12.60;;;7.95;;
71806;SDS011;59655;42.590;23.364;2022-08-11T16:30:55;16.38;;;8.55;;
71806;SDS011;59655;42.590;23.364;2022-08-11T16:33:21;18.88;;;8.00;;
71806;SDS011;59655;42.590;23.364;2022-08-11T16:35:48;13.38;;;7.97;;
71806;SDS011;59655;42.590;23.364;2022-08-11T16:38:33;15.75;;;7.45;;
71806;SDS011;59655;42.590;23.364;2022-08-11T16:41:03;13.38;;;7.70;;
71806;SDS011;59655;42.590;23.364;2022-08-11T16:43:37;12.35;;;7.10;;
71806;SDS011;59655;42.590;23.364;2022-08-11T16:46:23;16.17;;;7.28;;
71806;SDS011;59655;42.590;23.364;2022-08-11T16:49:09;13.45;;;7.45;;
71806;SDS011;59655;42.590;23.364;2022-08-11T16:51:37;11.63;;;7.13;;
71806;SDS011;59655;42.590;23.364;2022-08-11T16:54:03;16.63;;;7.10;;
71806;SDS011;59655;42.590;23.364;2022-08-11T16:56:30;15.52;;;7.75;;
71806;SDS011;59655;42.590;23.364;2022-08-11T16:59:28;13.40;;;6.97;;
71806;SDS011;59655;42.590;23.364;2022-08-11T17:01:57;13.35;;;7.70;;
71806;SDS011;59655;42.590;23.364;2022-08-11T17:07:22;10.68;;;7.50;;
71806;SDS011;59655;42.590;23.364;2022-08-11T17:10:08;12.32;;;7.35;;
71806;SDS011;59655;42.590;23.364;2022-08-11T17:12:59;20.90;;;7.82;;
71806;SDS011;59655;42.590;23.364;2022-08-11T17:15:32;11.45;;;6.93;;
71806;SDS011;59655;42.590;23.364;2022-08-11T17:18:18;15.32;;;8.45;;
71806;SDS011;59655;42.590;23.364;2022-08-11T17:23:48;33.55;;;10.18;;
71806;SDS011;59655;42.590;23.364;2022-08-11T17:28:50;28.52;;;10.02;;
71806;SDS011;59655;42.590;23.364;2022-08-11T17:31:20;31.33;;;11.02;;
71806;SDS011;59655;42.590;23.364;2022-08-11T17:34:06;26.92;;;10.32;;
71806;SDS011;59655;42.590;23.364;2022-08-11T17:36:52;28.80;;;11.07;;
71806;SDS011;59655;42.590;23.364;2022-08-11T17:39:19;31.33;;;10.98;;
71806;SDS011;59655;42.590;23.364;2022-08-11T17:41:48;24.15;;;10.63;;
71806;SDS011;59655;42.590;23.364;2022-08-11T17:44:34;19.08;;;9.63;;
71806;SDS011;59655;42.590;23.364;2022-08-11T17:47:21;15.50;;;8.45;;
71806;SDS011;59655;42.590;23.364;2022-08-11T17:50:05;23.80;;;11.07;;
71806;SDS011;59655;42.590;23.364;2022-08-11T17:52:32;24.95;;;11.73;;
71806;SDS011;59655;42.590;23.364;2022-08-11T17:55:17;43.55;;;13.85;;
71806;SDS011;59655;42.590;23.364;2022-08-11T17:58:02;25.88;;;11.07;;
71806;SDS011;59655;42.590;23.364;2022-08-11T18:00:47;22.35;;;10.23;;
71806;SDS011;59655;42.590;23.364;2022-08-11T18:03:15;22.73;;;9.52;;
71806;SDS011;59655;42.590;23.364;2022-08-11T18:05:53;15.75;;;10.20;;
71806;SDS011;59655;42.590;23.364;2022-08-11T18:08:20;13.98;;;9.05;;
71806;SDS011;59655;42.590;23.364;2022-08-11T18:11:06;15.45;;;8.93;;
71806;SDS011;59655;42.590;23.364;2022-08-11T18:13:51;17.67;;;9.07;;
71806;SDS011;59655;42.590;23.364;2022-08-11T18:16:35;17.20;;;9.63;;
71806;SDS011;59655;42.590;23.364;2022-08-11T18:19:19;17.98;;;11.30;;
71806;SDS011;59655;42.590;23.364;2022-08-11T18:22:13;16.45;;;9.52;;
71806;SDS011;59655;42.590;23.364;2022-08-11T18:25:09;21.00;;;11.32;;
71806;SDS011;59655;42.590;23.364;2022-08-11T18:27:58;16.75;;;9.25;;
71806;SDS011;59655;42.590;23.364;2022-08-11T18:30:47;16.42;;;10.27;;
71806;SDS011;59655;42.590;23.364;2022-08-11T18:33:50;16.20;;;9.38;;
71806;SDS011;59655;42.590;23.364;2022-08-11T18:37:00;14.75;;;8.50;;
71806;SDS011;59655;42.590;23.364;2022-08-11T18:39:48;20.00;;;8.73;;
71806;SDS011;59655;42.590;23.364;2022-08-11T18:42:36;15.35;;;8.80;;
71806;SDS011;59655;42.590;23.364;2022-08-11T18:45:24;14.75;;;8.98;;
71806;SDS011;59655;42.590;23.364;2022-08-11T18:48:09;13.23;;;8.90;;
71806;SDS011;59655;42.590;23.364;2022-08-11T18:50:56;15.70;;;8.75;;
71806;SDS011;59655;42.590;23.364;2022-08-11T18:53:46;13.93;;;8.52;;
71806;SDS011;59655;42.590;23.364;2022-08-11T18:56:34;14.15;;;8.18;;
71806;SDS011;59655;42.590;23.364;2022-08-11T18:59:19;19.85;;;8.75;;
71806;SDS011;59655;42.590;23.364;2022-08-11T19:02:08;13.52;;;8.45;;
71806;SDS011;59655;42.590;23.364;2022-08-11T19:04:54;14.13;;;7.85;;
71806;SDS011;59655;42.590;23.364;2022-08-11T19:07:40;14.20;;;8.65;;
71806;SDS011;59655;42.590;23.364;2022-08-11T19:10:27;13.60;;;8.52;;
71806;SDS011;59655;42.590;23.364;2022-08-11T19:13:12;15.93;;;8.85;;
71806;SDS011;59655;42.590;23.364;2022-08-11T19:15:56;14.13;;;8.93;;